Huvudsida
METAR-TAF:

METAR-TAF

Flygplatser :

Kinloss flygplats

Kinloss, Skottland

latitud: 57-39N, longitud: 003-34W, höjd: 7 m

Aktuellt väderrapport

Denna rapport gjordes för 55 minuter sedan, klockan 00:50 UTC
Vind 7 kt från syd/sydväst
Temperatur 2°C
Fuktighet 80%
Tryck 1035 hPa
Sikt 10 km eller mer

METAR: EGQK 190050Z AUTO 20007KT 9999 NCD 02/M01 Q1035

Tid: 01:45 (01:45 UTC)


TAF: saknas

Aktuella väderrapporter och prognoser från 4000 flygplatser (METAR- och TAF-rapporter).

De tillgängliga stationerna syns som gula och röda prickar på kartan.

För musen över prickarna för att se namnen på stationerna.

Klicka sedan för att få väderrapporter och prognoser.

För att ändra kartan: Klicka på de gröna knapparna med ett svart kors på för att zooma in; den gröna knappen med ett streck på för att zooma ut; eller på de gröna pilarna för angränsande kartor.


METAR-TAF: